sensor_id;sensor_type;location;lat;lon;timestamp;pressure;altitude;pressure_sealevel;temperature;humidity
66762;BME280;53672;48.176;16.338;2022-09-09T00:03:02;98985.88;;;14.80;87.04
66762;BME280;53672;48.176;16.338;2022-09-09T00:08:04;98978.69;;;14.75;87.03
66762;BME280;53672;48.176;16.338;2022-09-09T00:13:13;98986.47;;;14.68;87.21
66762;BME280;53672;48.176;16.338;2022-09-09T00:18:24;98988.69;;;14.66;87.35
66762;BME280;53672;48.176;16.338;2022-09-09T00:23:28;98988.69;;;14.66;87.35
66762;BME280;53672;48.176;16.338;2022-09-09T00:28:32;98974.00;;;14.67;87.47
66762;BME280;53672;48.176;16.338;2022-09-09T00:33:35;98984.06;;;14.66;87.39
66762;BME280;53672;48.176;16.338;2022-09-09T00:38:37;98977.66;;;14.62;87.73
66762;BME280;53672;48.176;16.338;2022-09-09T00:43:39;98980.50;;;14.57;88.41
66762;BME280;53672;48.176;16.338;2022-09-09T00:48:49;98977.13;;;14.52;88.44
66762;BME280;53672;48.176;16.338;2022-09-09T00:54:08;98985.19;;;14.43;89.04
66762;BME280;53672;48.176;16.338;2022-09-09T00:59:21;98995.84;;;14.40;88.96
66762;BME280;53672;48.176;16.338;2022-09-09T01:04:32;98992.97;;;14.36;89.05
66762;BME280;53672;48.176;16.338;2022-09-09T01:09:38;98997.09;;;14.34;89.56
66762;BME280;53672;48.176;16.338;2022-09-09T01:14:45;98997.69;;;14.31;89.67
66762;BME280;53672;48.176;16.338;2022-09-09T01:19:57;99002.41;;;14.25;89.45
66762;BME280;53672;48.176;16.338;2022-09-09T01:25:20;99010.34;;;14.21;89.20
66762;BME280;53672;48.176;16.338;2022-09-09T01:30:23;99009.56;;;14.21;89.06
66762;BME280;53672;48.176;16.338;2022-09-09T01:35:32;99012.09;;;14.17;89.00
66762;BME280;53672;48.176;16.338;2022-09-09T01:40:35;99018.09;;;14.14;89.29
66762;BME280;53672;48.176;16.338;2022-09-09T01:45:39;99017.63;;;14.12;89.02
66762;BME280;53672;48.176;16.338;2022-09-09T01:50:41;99021.75;;;14.10;88.84
66762;BME280;53672;48.176;16.338;2022-09-09T01:55:44;99021.44;;;14.11;88.38
66762;BME280;53672;48.176;16.338;2022-09-09T02:00:56;99021.63;;;14.15;88.15
66762;BME280;53672;48.176;16.338;2022-09-09T02:06:06;99012.09;;;14.17;88.10
66762;BME280;53672;48.176;16.338;2022-09-09T02:11:14;99010.16;;;14.18;88.19
66762;BME280;53672;48.176;16.338;2022-09-09T02:16:21;99013.19;;;14.16;87.70
66762;BME280;53672;48.176;16.338;2022-09-09T02:21:23;98998.94;;;14.11;87.86
66762;BME280;53672;48.176;16.338;2022-09-09T02:26:26;99011.19;;;14.08;88.08
66762;BME280;53672;48.176;16.338;2022-09-09T02:31:28;99003.50;;;14.02;88.42
66762;BME280;53672;48.176;16.338;2022-09-09T02:36:31;99002.50;;;13.98;88.94
66762;BME280;53672;48.176;16.338;2022-09-09T02:41:33;99007.09;;;13.97;88.34
66762;BME280;53672;48.176;16.338;2022-09-09T02:46:47;99008.72;;;13.98;87.98
66762;BME280;53672;48.176;16.338;2022-09-09T02:52:01;99005.41;;;14.01;87.68
66762;BME280;53672;48.176;16.338;2022-09-09T02:57:13;99008.19;;;14.10;86.65
66762;BME280;53672;48.176;16.338;2022-09-09T03:02:17;99007.25;;;14.14;86.68
66762;BME280;53672;48.176;16.338;2022-09-09T03:07:18;99010.47;;;14.16;86.89
66762;BME280;53672;48.176;16.338;2022-09-09T03:12:19;99014.00;;;14.17;86.31
66762;BME280;53672;48.176;16.338;2022-09-09T03:17:21;99006.66;;;14.17;86.72
66762;BME280;53672;48.176;16.338;2022-09-09T03:22:21;99011.09;;;14.13;87.88
66762;BME280;53672;48.176;16.338;2022-09-09T03:27:22;99011.81;;;14.05;88.83
66762;BME280;53672;48.176;16.338;2022-09-09T03:32:24;99010.44;;;13.94;89.48
66762;BME280;53672;48.176;16.338;2022-09-09T03:37:25;98996.50;;;13.87;89.36
66762;BME280;53672;48.176;16.338;2022-09-09T03:42:26;98987.00;;;13.76;89.37
66762;BME280;53672;48.176;16.338;2022-09-09T03:47:27;99003.06;;;13.73;89.42
66762;BME280;53672;48.176;16.338;2022-09-09T03:52:28;99012.72;;;13.65;89.62
66762;BME280;53672;48.176;16.338;2022-09-09T03:57:28;99011.41;;;13.62;90.00
66762;BME280;53672;48.176;16.338;2022-09-09T04:02:30;99004.69;;;13.60;90.06
66762;BME280;53672;48.176;16.338;2022-09-09T04:07:31;99007.38;;;13.60;89.96
66762;BME280;53672;48.176;16.338;2022-09-09T04:12:31;99009.13;;;13.56;90.02
66762;BME280;53672;48.176;16.338;2022-09-09T04:17:33;99015.63;;;13.55;89.60
66762;BME280;53672;48.176;16.338;2022-09-09T04:22:33;99014.53;;;13.56;90.40
66762;BME280;53672;48.176;16.338;2022-09-09T04:27:34;99021.13;;;13.50;91.08
66762;BME280;53672;48.176;16.338;2022-09-09T04:32:36;99012.22;;;13.49;91.07
66762;BME280;53672;48.176;16.338;2022-09-09T04:37:36;99017.94;;;13.48;91.05
66762;BME280;53672;48.176;16.338;2022-09-09T04:42:37;99042.31;;;13.48;91.75
66762;BME280;53672;48.176;16.338;2022-09-09T04:47:39;99042.91;;;13.45;91.52
66762;BME280;53672;48.176;16.338;2022-09-09T04:52:39;99053.03;;;13.39;91.81
66762;BME280;53672;48.176;16.338;2022-09-09T04:57:40;99055.03;;;13.34;92.10
66762;BME280;53672;48.176;16.338;2022-09-09T05:02:42;99064.97;;;13.25;92.34
66762;BME280;53672;48.176;16.338;2022-09-09T05:07:43;99054.63;;;13.27;92.91
66762;BME280;53672;48.176;16.338;2022-09-09T05:12:52;99055.03;;;13.34;92.47
66762;BME280;53672;48.176;16.338;2022-09-09T05:17:56;99061.94;;;13.40;92.42
66762;BME280;53672;48.176;16.338;2022-09-09T05:22:57;99057.94;;;13.51;93.06
66762;BME280;53672;48.176;16.338;2022-09-09T05:27:58;99055.56;;;13.63;93.12
66762;BME280;53672;48.176;16.338;2022-09-09T05:33:00;99050.91;;;13.77;92.83
66762;BME280;53672;48.176;16.338;2022-09-09T05:38:00;99058.72;;;13.92;91.06
66762;BME280;53672;48.176;16.338;2022-09-09T05:43:00;99067.13;;;14.04;90.26
66762;BME280;53672;48.176;16.338;2022-09-09T05:48:02;99063.78;;;14.21;90.10
66762;BME280;53672;48.176;16.338;2022-09-09T05:53:03;99061.06;;;14.35;89.95
66762;BME280;53672;48.176;16.338;2022-09-09T05:58:03;99063.72;;;14.48;89.58
66762;BME280;53672;48.176;16.338;2022-09-09T06:03:05;99064.78;;;14.61;88.85
66762;BME280;53672;48.176;16.338;2022-09-09T06:08:06;99054.16;;;14.73;88.04
66762;BME280;53672;48.176;16.338;2022-09-09T06:13:07;99048.47;;;14.83;87.59
66762;BME280;53672;48.176;16.338;2022-09-09T06:18:08;99039.50;;;15.05;86.70
66762;BME280;53672;48.176;16.338;2022-09-09T06:23:09;99049.25;;;15.45;85.64
66762;BME280;53672;48.176;16.338;2022-09-09T06:28:09;99049.09;;;15.90;84.04
66762;BME280;53672;48.176;16.338;2022-09-09T06:33:11;99039.41;;;16.40;82.46
66762;BME280;53672;48.176;16.338;2022-09-09T06:38:12;99037.72;;;16.99;80.20
66762;BME280;53672;48.176;16.338;2022-09-09T06:43:12;99039.50;;;17.42;78.06
66762;BME280;53672;48.176;16.338;2022-09-09T06:48:14;99046.19;;;17.61;77.67
66762;BME280;53672;48.176;16.338;2022-09-09T06:53:16;99052.06;;;17.72;77.82
66762;BME280;53672;48.176;16.338;2022-09-09T06:58:16;99050.84;;;17.90;76.63
66762;BME280;53672;48.176;16.338;2022-09-09T07:03:18;99039.69;;;18.04;75.71
66762;BME280;53672;48.176;16.338;2022-09-09T07:08:19;99040.50;;;18.25;75.02
66762;BME280;53672;48.176;16.338;2022-09-09T07:13:23;99039.19;;;18.52;72.86
66762;BME280;53672;48.176;16.338;2022-09-09T07:18:25;99049.97;;;18.81;72.26
66762;BME280;53672;48.176;16.338;2022-09-09T07:23:25;99038.06;;;18.86;71.28
66762;BME280;53672;48.176;16.338;2022-09-09T07:28:26;99055.31;;;19.10;72.92
66762;BME280;53672;48.176;16.338;2022-09-09T07:33:28;99051.66;;;19.18;70.81
66762;BME280;53672;48.176;16.338;2022-09-09T07:38:29;99056.69;;;19.29;68.19
66762;BME280;53672;48.176;16.338;2022-09-09T07:43:29;99060.75;;;19.55;68.63
66762;BME280;53672;48.176;16.338;2022-09-09T07:48:31;99054.03;;;19.77;64.83
66762;BME280;53672;48.176;16.338;2022-09-09T07:53:32;99058.56;;;20.09;66.57
66762;BME280;53672;48.176;16.338;2022-09-09T07:58:33;99058.41;;;20.18;65.04
66762;BME280;53672;48.176;16.338;2022-09-09T08:03:35;99060.00;;;20.31;63.02
66762;BME280;53672;48.176;16.338;2022-09-09T08:08:36;99072.94;;;20.31;62.59
66762;BME280;53672;48.176;16.338;2022-09-09T08:13:37;99069.25;;;20.39;62.85
66762;BME280;53672;48.176;16.338;2022-09-09T08:18:40;99065.19;;;20.60;62.64
66762;BME280;53672;48.176;16.338;2022-09-09T08:23:42;99063.84;;;20.82;62.68
66762;BME280;53672;48.176;16.338;2022-09-09T08:28:43;99075.13;;;21.36;63.57
66762;BME280;53672;48.176;16.338;2022-09-09T08:33:45;99081.59;;;21.91;59.35
66762;BME280;53672;48.176;16.338;2022-09-09T08:38:47;99073.94;;;22.35;59.62
66762;BME280;53672;48.176;16.338;2022-09-09T08:43:50;99063.13;;;22.61;55.84
66762;BME280;53672;48.176;16.338;2022-09-09T08:48:56;99058.66;;;22.91;55.24
66762;BME280;53672;48.176;16.338;2022-09-09T08:54:00;99053.13;;;23.10;54.66
66762;BME280;53672;48.176;16.338;2022-09-09T08:59:02;99049.03;;;23.23;51.54
66762;BME280;53672;48.176;16.338;2022-09-09T09:04:10;99052.81;;;24.36;51.34
66762;BME280;53672;48.176;16.338;2022-09-09T09:09:20;99038.50;;;25.23;51.16
66762;BME280;53672;48.176;16.338;2022-09-09T09:14:23;99039.66;;;26.17;45.56
66762;BME280;53672;48.176;16.338;2022-09-09T09:19:26;99037.75;;;26.32;44.14
66762;BME280;53672;48.176;16.338;2022-09-09T09:24:32;99035.72;;;27.26;40.55
66762;BME280;53672;48.176;16.338;2022-09-09T09:29:35;99030.94;;;27.19;41.19
66762;BME280;53672;48.176;16.338;2022-09-09T09:34:36;99022.06;;;28.66;39.88
66762;BME280;53672;48.176;16.338;2022-09-09T09:39:37;99015.16;;;28.01;38.46
66762;BME280;53672;48.176;16.338;2022-09-09T09:44:37;99018.31;;;27.15;40.00
66762;BME280;53672;48.176;16.338;2022-09-09T09:49:39;99015.00;;;25.91;42.57
66762;BME280;53672;48.176;16.338;2022-09-09T09:54:51;99014.75;;;25.56;45.08
66762;BME280;53672;48.176;16.338;2022-09-09T10:00:01;99008.47;;;24.45;45.90
66762;BME280;53672;48.176;16.338;2022-09-09T10:05:08;99004.88;;;24.41;46.22
66762;BME280;53672;48.176;16.338;2022-09-09T10:10:16;99010.09;;;25.67;43.75
66762;BME280;53672;48.176;16.338;2022-09-09T10:15:37;99014.31;;;25.50;43.38
66762;BME280;53672;48.176;16.338;2022-09-09T10:20:49;99010.78;;;27.12;41.75
66762;BME280;53672;48.176;16.338;2022-09-09T10:26:05;99010.94;;;25.75;44.24
66762;BME280;53672;48.176;16.338;2022-09-09T10:31:17;98997.84;;;25.17;47.74
66762;BME280;53672;48.176;16.338;2022-09-09T10:36:27;99007.00;;;25.76;45.38
66762;BME280;53672;48.176;16.338;2022-09-09T10:41:42;98997.97;;;25.35;44.20
66762;BME280;53672;48.176;16.338;2022-09-09T10:46:56;98990.41;;;25.68;43.05
66762;BME280;53672;48.176;16.338;2022-09-09T10:52:05;99003.81;;;26.35;42.10
66762;BME280;53672;48.176;16.338;2022-09-09T10:57:23;99008.75;;;25.03;44.66
66762;BME280;53672;48.176;16.338;2022-09-09T11:02:27;99019.44;;;25.11;44.75
66762;BME280;53672;48.176;16.338;2022-09-09T11:07:34;99013.34;;;24.58;44.29
66762;BME280;53672;48.176;16.338;2022-09-09T11:12:39;98997.44;;;24.45;45.75
66762;BME280;53672;48.176;16.338;2022-09-09T11:17:46;99001.53;;;24.25;49.41
66762;BME280;53672;48.176;16.338;2022-09-09T11:22:53;98998.50;;;24.37;45.94
66762;BME280;53672;48.176;16.338;2022-09-09T11:28:24;99006.09;;;24.13;47.51
66762;BME280;53672;48.176;16.338;2022-09-09T11:39:04;98993.13;;;24.47;46.95
66762;BME280;53672;48.176;16.338;2022-09-09T11:44:16;98989.41;;;24.99;47.17
66762;BME280;53672;48.176;16.338;2022-09-09T11:49:27;98989.88;;;25.52;46.12
66762;BME280;53672;48.176;16.338;2022-09-09T11:54:31;98982.13;;;25.68;42.46
66762;BME280;53672;48.176;16.338;2022-09-09T11:59:32;98978.72;;;25.96;42.07
66762;BME280;53672;48.176;16.338;2022-09-09T12:04:37;98989.53;;;25.13;44.24
66762;BME280;53672;48.176;16.338;2022-09-09T12:09:46;98976.63;;;25.76;41.90
66762;BME280;53672;48.176;16.338;2022-09-09T12:20:15;98951.69;;;26.41;39.76
66762;BME280;53672;48.176;16.338;2022-09-09T12:25:25;98961.88;;;25.50;40.06
66762;BME280;53672;48.176;16.338;2022-09-09T12:30:31;98956.03;;;25.62;40.61
66762;BME280;53672;48.176;16.338;2022-09-09T12:35:34;98954.09;;;25.66;41.46
66762;BME280;53672;48.176;16.338;2022-09-09T12:40:37;98943.97;;;25.34;41.99
66762;BME280;53672;48.176;16.338;2022-09-09T12:45:40;98946.38;;;24.91;42.59
66762;BME280;53672;48.176;16.338;2022-09-09T12:50:45;98942.63;;;25.13;42.77
66762;BME280;53672;48.176;16.338;2022-09-09T12:55:51;98925.03;;;25.32;42.96
66762;BME280;53672;48.176;16.338;2022-09-09T13:00:53;98926.06;;;24.73;42.87
66762;BME280;53672;48.176;16.338;2022-09-09T13:05:58;98926.31;;;24.94;43.06
66762;BME280;53672;48.176;16.338;2022-09-09T13:11:02;98913.28;;;24.54;42.49
66762;BME280;53672;48.176;16.338;2022-09-09T13:16:07;98903.81;;;24.52;43.97
66762;BME280;53672;48.176;16.338;2022-09-09T13:21:18;98903.47;;;24.57;43.61
66762;BME280;53672;48.176;16.338;2022-09-09T13:26:23;98910.13;;;24.56;44.26
66762;BME280;53672;48.176;16.338;2022-09-09T13:31:28;98908.09;;;24.49;44.83
66762;BME280;53672;48.176;16.338;2022-09-09T13:36:30;98916.94;;;24.29;47.02
66762;BME280;53672;48.176;16.338;2022-09-09T13:41:34;98905.84;;;24.21;44.79
66762;BME280;53672;48.176;16.338;2022-09-09T13:46:36;98893.00;;;24.03;45.75
66762;BME280;53672;48.176;16.338;2022-09-09T13:51:39;98895.06;;;23.80;45.12
66762;BME280;53672;48.176;16.338;2022-09-09T13:56:42;98888.59;;;23.65;46.02
66762;BME280;53672;48.176;16.338;2022-09-09T14:01:42;98890.06;;;23.59;46.95
66762;BME280;53672;48.176;16.338;2022-09-09T14:06:43;98893.78;;;23.44;45.90
66762;BME280;53672;48.176;16.338;2022-09-09T14:11:45;98901.53;;;23.38;46.86
66762;BME280;53672;48.176;16.338;2022-09-09T14:16:46;98908.09;;;23.30;48.49
66762;BME280;53672;48.176;16.338;2022-09-09T14:21:46;98920.38;;;22.87;55.34
66762;BME280;53672;48.176;16.338;2022-09-09T14:26:48;98920.81;;;22.28;60.28
66762;BME280;53672;48.176;16.338;2022-09-09T14:31:48;98924.16;;;21.64;63.84
66762;BME280;53672;48.176;16.338;2022-09-09T14:36:49;98934.84;;;21.18;66.45
66762;BME280;53672;48.176;16.338;2022-09-09T14:41:51;98929.84;;;20.93;68.09
66762;BME280;53672;48.176;16.338;2022-09-09T14:46:51;98933.63;;;20.72;68.97
66762;BME280;53672;48.176;16.338;2022-09-09T14:51:52;98924.28;;;20.73;69.01
66762;BME280;53672;48.176;16.338;2022-09-09T14:56:53;98924.13;;;20.82;68.88
66762;BME280;53672;48.176;16.338;2022-09-09T15:01:54;98916.16;;;20.93;68.79
66762;BME280;53672;48.176;16.338;2022-09-09T15:06:54;98925.34;;;21.00;68.88
66762;BME280;53672;48.176;16.338;2022-09-09T15:11:56;98920.50;;;20.94;69.85
66762;BME280;53672;48.176;16.338;2022-09-09T15:16:56;98914.56;;;20.92;70.12
66762;BME280;53672;48.176;16.338;2022-09-09T15:21:57;98909.00;;;20.88;70.62
66762;BME280;53672;48.176;16.338;2022-09-09T15:26:59;98920.78;;;20.89;70.63
66762;BME280;53672;48.176;16.338;2022-09-09T15:32:01;98905.19;;;20.61;72.73
66762;BME280;53672;48.176;16.338;2022-09-09T15:37:01;98892.88;;;20.40;73.81
66762;BME280;53672;48.176;16.338;2022-09-09T15:42:03;98896.31;;;20.09;74.27
66762;BME280;53672;48.176;16.338;2022-09-09T15:47:04;98906.41;;;19.93;74.64
66762;BME280;53672;48.176;16.338;2022-09-09T15:52:04;98906.22;;;19.73;76.36
66762;BME280;53672;48.176;16.338;2022-09-09T15:57:07;98903.31;;;19.54;77.36
66762;BME280;53672;48.176;16.338;2022-09-09T16:02:10;98903.88;;;19.36;78.12
66762;BME280;53672;48.176;16.338;2022-09-09T16:07:10;98916.75;;;19.23;78.45
66762;BME280;53672;48.176;16.338;2022-09-09T16:12:12;98923.00;;;19.11;78.27
66762;BME280;53672;48.176;16.338;2022-09-09T16:17:12;98923.13;;;19.03;78.23
66762;BME280;53672;48.176;16.338;2022-09-09T16:22:13;98923.34;;;18.86;78.48
66762;BME280;53672;48.176;16.338;2022-09-09T16:27:15;98918.44;;;18.79;77.78
66762;BME280;53672;48.176;16.338;2022-09-09T16:32:15;98905.78;;;18.62;78.41
66762;BME280;53672;48.176;16.338;2022-09-09T16:37:16;98914.75;;;18.51;79.12
66762;BME280;53672;48.176;16.338;2022-09-09T16:42:17;98919.72;;;18.49;79.30
66762;BME280;53672;48.176;16.338;2022-09-09T16:47:18;98927.72;;;18.33;79.54
66762;BME280;53672;48.176;16.338;2022-09-09T16:52:18;98941.53;;;18.16;80.51
66762;BME280;53672;48.176;16.338;2022-09-09T16:57:21;98944.09;;;18.00;81.69
66762;BME280;53672;48.176;16.338;2022-09-09T17:02:22;98933.84;;;17.97;82.19
66762;BME280;53672;48.176;16.338;2022-09-09T17:07:22;98930.84;;;17.90;81.95
66762;BME280;53672;48.176;16.338;2022-09-09T17:12:25;98926.34;;;17.73;82.10
66762;BME280;53672;48.176;16.338;2022-09-09T17:17:25;98957.84;;;17.54;83.80
66762;BME280;53672;48.176;16.338;2022-09-09T17:22:26;99014.34;;;17.45;84.72
66762;BME280;53672;48.176;16.338;2022-09-09T17:27:28;99022.88;;;17.35;89.02
66762;BME280;53672;48.176;16.338;2022-09-09T17:32:28;99036.66;;;16.92;94.28
66762;BME280;53672;48.176;16.338;2022-09-09T17:37:29;99038.59;;;16.65;96.11
66762;BME280;53672;48.176;16.338;2022-09-09T17:42:31;99013.16;;;16.53;97.70
66762;BME280;53672;48.176;16.338;2022-09-09T17:47:31;99009.00;;;16.47;98.78
66762;BME280;53672;48.176;16.338;2022-09-09T17:52:32;99006.09;;;16.35;99.93
66762;BME280;53672;48.176;16.338;2022-09-09T17:57:33;99001.63;;;16.30;100.00
66762;BME280;53672;48.176;16.338;2022-09-09T18:02:34;99002.44;;;16.31;100.00
66762;BME280;53672;48.176;16.338;2022-09-09T18:07:34;99009.97;;;16.25;100.00
66762;BME280;53672;48.176;16.338;2022-09-09T18:12:36;99021.16;;;16.15;100.00
66762;BME280;53672;48.176;16.338;2022-09-09T18:17:37;99037.94;;;16.08;100.00
66762;BME280;53672;48.176;16.338;2022-09-09T18:22:37;99047.69;;;16.01;100.00
66762;BME280;53672;48.176;16.338;2022-09-09T18:27:39;99047.22;;;15.99;100.00
66762;BME280;53672;48.176;16.338;2022-09-09T18:32:39;99045.44;;;15.94;100.00
66762;BME280;53672;48.176;16.338;2022-09-09T18:37:40;99044.81;;;15.89;100.00
66762;BME280;53672;48.176;16.338;2022-09-09T18:42:41;99040.47;;;15.88;100.00
66762;BME280;53672;48.176;16.338;2022-09-09T18:47:42;99033.44;;;15.87;100.00
66762;BME280;53672;48.176;16.338;2022-09-09T18:52:42;99025.59;;;15.85;100.00
66762;BME280;53672;48.176;16.338;2022-09-09T18:57:44;99026.38;;;15.86;100.00
66762;BME280;53672;48.176;16.338;2022-09-09T19:02:47;99027.50;;;15.76;100.00
66762;BME280;53672;48.176;16.338;2022-09-09T19:07:48;99031.47;;;15.70;100.00
66762;BME280;53672;48.176;16.338;2022-09-09T19:12:49;99026.03;;;15.70;100.00
66762;BME280;53672;48.176;16.338;2022-09-09T19:17:50;99038.81;;;15.69;100.00
66762;BME280;53672;48.176;16.338;2022-09-09T19:22:50;99028.28;;;15.68;100.00
66762;BME280;53672;48.176;16.338;2022-09-09T19:27:52;99032.59;;;15.69;100.00
66762;BME280;53672;48.176;16.338;2022-09-09T19:32:53;99019.16;;;15.64;100.00
66762;BME280;53672;48.176;16.338;2022-09-09T19:37:53;99020.09;;;15.59;100.00
66762;BME280;53672;48.176;16.338;2022-09-09T19:42:55;99020.72;;;15.56;100.00
66762;BME280;53672;48.176;16.338;2022-09-09T19:47:55;99019.63;;;15.57;100.00
66762;BME280;53672;48.176;16.338;2022-09-09T19:52:56;99018.19;;;15.51;100.00
66762;BME280;53672;48.176;16.338;2022-09-09T19:57:58;99016.38;;;15.47;100.00
66762;BME280;53672;48.176;16.338;2022-09-09T20:02:58;99025.16;;;15.44;100.00
66762;BME280;53672;48.176;16.338;2022-09-09T20:07:58;99027.88;;;15.44;100.00
66762;BME280;53672;48.176;16.338;2022-09-09T20:13:00;99026.88;;;15.40;100.00
66762;BME280;53672;48.176;16.338;2022-09-09T20:18:01;99041.09;;;15.37;100.00
66762;BME280;53672;48.176;16.338;2022-09-09T20:23:01;99040.13;;;15.33;100.00
66762;BME280;53672;48.176;16.338;2022-09-09T20:28:03;99043.63;;;15.33;100.00
66762;BME280;53672;48.176;16.338;2022-09-09T20:33:04;99046.66;;;15.32;100.00
66762;BME280;53672;48.176;16.338;2022-09-09T20:38:04;99043.47;;;15.30;100.00
66762;BME280;53672;48.176;16.338;2022-09-09T20:43:06;99038.16;;;15.24;100.00
66762;BME280;53672;48.176;16.338;2022-09-09T20:48:10;99054.91;;;15.18;100.00
66762;BME280;53672;48.176;16.338;2022-09-09T20:53:10;99049.47;;;15.18;100.00
66762;BME280;53672;48.176;16.338;2022-09-09T20:58:12;99054.09;;;15.17;100.00
66762;BME280;53672;48.176;16.338;2022-09-09T21:03:12;99050.44;;;15.13;100.00
66762;BME280;53672;48.176;16.338;2022-09-09T21:08:13;99052.63;;;15.11;100.00
66762;BME280;53672;48.176;16.338;2022-09-09T21:13:14;99065.53;;;15.06;100.00
66762;BME280;53672;48.176;16.338;2022-09-09T21:18:15;99062.03;;;15.05;100.00
66762;BME280;53672;48.176;16.338;2022-09-09T21:23:16;99050.19;;;15.01;100.00
66762;BME280;53672;48.176;16.338;2022-09-09T21:28:18;99052.72;;;14.98;100.00
66762;BME280;53672;48.176;16.338;2022-09-09T21:33:21;99059.25;;;14.97;100.00
66762;BME280;53672;48.176;16.338;2022-09-09T21:38:23;99056.25;;;14.98;100.00
66762;BME280;53672;48.176;16.338;2022-09-09T21:43:25;99053.03;;;14.96;100.00
66762;BME280;53672;48.176;16.338;2022-09-09T21:48:26;99050.63;;;14.95;100.00
66762;BME280;53672;48.176;16.338;2022-09-09T21:53:26;99055.25;;;14.94;100.00
66762;BME280;53672;48.176;16.338;2022-09-09T21:58:28;99053.63;;;14.93;100.00
66762;BME280;53672;48.176;16.338;2022-09-09T22:03:29;99055.06;;;14.91;100.00
66762;BME280;53672;48.176;16.338;2022-09-09T22:08:30;99050.44;;;14.91;100.00
66762;BME280;53672;48.176;16.338;2022-09-09T22:13:32;99060.50;;;14.91;100.00
66762;BME280;53672;48.176;16.338;2022-09-09T22:18:33;99060.50;;;14.91;100.00
66762;BME280;53672;48.176;16.338;2022-09-09T22:23:34;99052.34;;;14.91;100.00
66762;BME280;53672;48.176;16.338;2022-09-09T22:28:36;99045.81;;;14.92;100.00
66762;BME280;53672;48.176;16.338;2022-09-09T22:33:37;99045.50;;;14.93;100.00
66762;BME280;53672;48.176;16.338;2022-09-09T22:38:37;99049.81;;;14.94;100.00
66762;BME280;53672;48.176;16.338;2022-09-09T22:43:40;99022.69;;;14.94;100.00
66762;BME280;53672;48.176;16.338;2022-09-09T22:48:41;99025.56;;;14.98;100.00
66762;BME280;53672;48.176;16.338;2022-09-09T22:53:43;99031.34;;;14.96;100.00
66762;BME280;53672;48.176;16.338;2022-09-09T22:58:46;99019.66;;;14.96;100.00
66762;BME280;53672;48.176;16.338;2022-09-09T23:03:52;99021.88;;;14.94;100.00
66762;BME280;53672;48.176;16.338;2022-09-09T23:08:54;99025.91;;;14.96;100.00
66762;BME280;53672;48.176;16.338;2022-09-09T23:13:57;99019.50;;;14.92;100.00
66762;BME280;53672;48.176;16.338;2022-09-09T23:18:58;99008.47;;;14.89;100.00
66762;BME280;53672;48.176;16.338;2022-09-09T23:23:59;99019.31;;;14.89;100.00
66762;BME280;53672;48.176;16.338;2022-09-09T23:29:01;99018.50;;;14.88;100.00
66762;BME280;53672;48.176;16.338;2022-09-09T23:34:02;99017.88;;;14.91;100.00
66762;BME280;53672;48.176;16.338;2022-09-09T23:39:04;99023.59;;;14.90;100.00
66762;BME280;53672;48.176;16.338;2022-09-09T23:44:06;99018.50;;;14.88;100.00
66762;BME280;53672;48.176;16.338;2022-09-09T23:49:07;99022.84;;;14.89;100.00
66762;BME280;53672;48.176;16.338;2022-09-09T23:54:08;99010.84;;;14.90;100.00
66762;BME280;53672;48.176;16.338;2022-09-09T23:59:10;99006.84;;;14.88;100.00
